Data for 08/05/2015

Time Sea-Level Adjusted Pressure Absolute Pressure Temperature Relative Humidity Dew Point   
(mb) (inHg) (mb) (inHg) (C) (F) (%) (C) (F)
00:05 1020 30.12 849 25.07 15.4 59.8 70 9.9 49.9
00:10 1019 30.09 849 25.07 15.3 59.6 70 10 50
00:15 1019 30.09 849 25.07 15.3 59.6 69 9.8 49.6
00:20 1019 30.09 849 25.07 15.4 59.8 67 9.4 49
00:25 1019 30.09 848 25.04 15.5 60 67 9.6 49.2
00:30 1019 30.09 848 25.04 15.7 60.2 67 9.6 49.3
00:35 1019 30.09 848 25.04 15.7 60.3 66 9.5 49.1
00:40 1019 30.09 848 25.04 15.7 60.3 67 9.6 49.2
00:45 1019 30.09 848 25.04 15.6 60.1 67 9.5 49.1
00:50 1019 30.09 848 25.04 15.6 60.2 66 9.5 49.1
00:55 1019 30.09 848 25.04 15.6 60 67 9.5 49
01:00 1019 30.09 848 25.04 15.5 59.9 65 9.1 48.4
01:05 1019 30.09 848 25.04 15.4 59.8 66 9.1 48.5
01:10 1019 30.09 848 25.04 15.4 59.7 66 9.2 48.5
01:15 1019 30.09 848 25.04 15.2 59.3 68 9.3 48.8
01:20 1019 30.09 848 25.04 15 59.1 68 9.3 48.7
01:25 1019 30.09 848 25.04 14.9 58.9 71 9.8 49.6
01:30 1019 30.09 848 25.04 14.8 58.6 74 10.3 50.5
01:35 1019 30.09 848 25.04 14.8 58.6 72 9.8 49.7
01:40 1019 30.09 848 25.04 14.8 58.6 69 9.3 48.7
01:45 1019 30.09 848 25.04 15 58.9 68 9.1 48.4
01:50 1019 30.09 848 25.04 15.1 59.1 68 9.3 48.7
01:55 1019 30.09 848 25.04 14.9 58.8 68 9 48.2
02:00 1019 30.09 848 25.04 14.7 58.5 70 9.3 48.8
02:05 1019 30.09 848 25.04 14.5 58.1 69 8.9 48
02:10 1019 30.09 848 25.04 14.8 58.6 66 8.7 47.6
02:15 1019 30.09 848 25.04 15 59 67 9 48.1
02:20 1019 30.09 848 25.04 14.7 58.4 68 9 48.1
02:25 1019 30.09 848 25.04 14.5 58 68 8.7 47.7
02:30 1019 30.09 848 25.04 14.6 58.3 66 8.5 47.3
02:35 1019 30.09 848 25.04 14.7 58.5 67 8.7 47.6
02:40 1018 30.06 848 25.04 14.6 58.2 68 8.7 47.7
02:45 1018 30.06 848 25.04 14.3 57.7 70 9 48.2
02:50 1018 30.06 848 25.04 14 57.1 70 8.5 47.4
02:55 1018 30.06 848 25.04 14.1 57.4 70 8.7 47.7
03:00 1018 30.06 848 25.04 14.1 57.4 69 8.5 47.3
03:05 1018 30.06 848 25.04 14.1 57.4 69 8.5 47.3
03:10 1018 30.06 848 25.04 14.2 57.6 67 8.3 47
03:15 1018 30.06 848 25.04 14.3 57.7 68 8.5 47.4
03:20 1018 30.06 847 25.01 14.1 57.3 69 8.5 47.3
03:25 1018 30.06 847 25.01 14 57.2 69 8.5 47.2
03:30 1018 30.06 847 25.01 13.7 56.7 71 8.6 47.4
03:35 1018 30.06 847 25.01 13.5 56.2 71 8.4 47.2
03:40 1018 30.06 847 25.01 13.5 56.2 71 8.4 47.1
03:45 1018 30.06 847 25.01 13.6 56.4 70 8.2 46.8
03:50 1018 30.06 847 25.01 13.5 56.2 71 8.3 47
03:55 1018 30.06 847 25.01 13.4 56.1 70 8.1 46.6
04:00 1018 30.06 847 25.01 13.7 56.6 68 8 46.4
04:05 1018 30.06 847 25.01 13.7 56.6 69 8.1 46.5
04:10 1018 30.06 847 25.01 13.6 56.5 68 7.9 46.2
04:15 1018 30.06 847 25.01 13.9 56.9 67 8 46.4
04:20 1018 30.06 847 25.01 13.7 56.7 67 7.8 46.1
04:25 1018 30.06 847 25.01 13.8 56.8 67 7.7 45.9
04:30 1018 30.06 847 25.01 14 57.1 66 7.7 45.9
04:35 1018 30.06 848 25.04 13.9 57.1 66 7.8 46
04:40 1018 30.06 848 25.04 13.8 56.9 67 7.8 46
04:45 1018 30.06 848 25.04 13.8 56.8 68 8 46.3
04:50 1018 30.06 848 25.04 13.6 56.5 67 7.7 45.9
04:55 1018 30.06 848 25.04 13.5 56.3 68 7.8 46
05:00 1018 30.06 847 25.01 13.3 55.9 69 7.8 46
05:05 1018 30.06 848 25.04 13.1 55.5 70 7.7 45.9
05:10 1018 30.06 848 25.04 12.9 55.3 70 7.7 45.9
05:15 1018 30.06 848 25.04 12.9 55.2 71 7.8 46.1
05:20 1018 30.06 848 25.04 12.9 55.3 70 7.6 45.7
05:25 1019 30.09 848 25.04 13.2 55.8 68 7.6 45.7
05:30 1019 30.09 848 25.04 13.5 56.2 67 7.6 45.7
05:35 1019 30.09 848 25.04 13.7 56.7 66 7.6 45.6
05:40 1019 30.09 848 25.04 13.8 56.8 66 7.7 45.8
05:45 1019 30.09 848 25.04 13.9 57.1 66 7.8 46
05:50 1019 30.09 848 25.04 13.9 57.1 67 7.9 46.3
05:55 1019 30.09 848 25.04 13.8 56.8 67 7.8 46.1
06:00 1019 30.09 848 25.04 13.8 56.8 67 7.9 46.2
06:05 1019 30.09 848 25.04 13.9 57.1 66 7.7 45.9
06:10 1019 30.09 848 25.04 14.1 57.4 66 7.9 46.3
06:15 1019 30.09 848 25.04 14.2 57.6 66 7.9 46.3
06:20 1019 30.09 848 25.04 14.3 57.8 66 8.1 46.5
06:25 1019 30.09 848 25.04 14.3 57.7 69 8.7 47.6
06:30 1019 30.09 848 25.04 14 57.2 70 8.7 47.6
06:35 1019 30.09 848 25.04 13.9 57 70 8.5 47.3
06:40 1019 30.09 848 25.04 13.8 56.9 71 8.6 47.5
06:45 1019 30.09 848 25.04 13.9 56.9 70 8.6 47.4
06:50 1019 30.09 848 25.04 14.1 57.3 68 8.4 47
06:55 1019 30.09 848 25.04 14.2 57.5 69 8.6 47.5
07:00 1019 30.09 848 25.04 14.2 57.6 70 8.8 47.9
07:05 1019 30.09 848 25.04 14.2 57.6 70 8.8 47.9
07:10 1018 30.06 848 25.04 14.2 57.5 69 8.7 47.6
07:15 1018 30.06 848 25.04 14.4 57.9 68 8.6 47.5
07:20 1018 30.06 848 25.04 14.7 58.4 68 8.8 47.8
07:25 1019 30.09 848 25.04 14.9 58.8 66 8.6 47.4
07:30 1019 30.09 848 25.04 15.2 59.3 64 8.4 47.1
07:35 1019 30.09 848 25.04 15.4 59.7 63 8.5 47.3
07:40 1019 30.09 848 25.04 15.6 60 63 8.5 47.4
07:45 1019 30.09 848 25.04 15.8 60.5 59 7.8 46.1
07:50 1019 30.09 848 25.04 16.1 60.9 60 8.3 47
07:55 1019 30.09 848 25.04 16.1 61 59 8.2 46.8
08:00 1019 30.09 848 25.04 16.2 61.2 60 8.4 47.2
08:05 1019 30.09 848 25.04 16.4 61.4 59 8.5 47.3
08:10 1019 30.09 848 25.04 16.5 61.7 57 8 46.4
08:15 1019 30.09 848 25.04 16.8 62.2 58 8.5 47.2
08:20 1019 30.09 848 25.04 16.9 62.3 58 8.6 47.6
08:25 1019 30.09 848 25.04 17 62.5 58 8.7 47.6
08:30 1019 30.09 848 25.04 17.1 62.7 56 8.3 47
08:35 1019 30.09 848 25.04 17.4 63.3 55 8.4 47.1
08:40 1019 30.09 848 25.04 17.6 63.6 56 8.7 47.7
08:45 1019 30.09 848 25.04 17.5 63.5 60 9.6 49.4
08:50 1019 30.09 848 25.04 17.6 63.6 59 9.6 49.3
08:55 1019 30.09 848 25.04 17.2 63 59 9.3 48.7
09:00 1019 30.09 848 25.04 17.2 63 60 9.4 48.9
09:05 1019 30.09 848 25.04 17.2 63 59 9.3 48.8
09:10 1019 30.09 848 25.04 17.4 63.4 58 9.3 48.7
09:15 1019 30.09 848 25.04 17.7 63.8 58 9.3 48.8
09:20 1019 30.09 848 25.04 17.7 63.9 59 9.6 49.3
09:25 1019 30.09 848 25.04 17.6 63.7 59 9.6 49.3
09:30 1019 30.09 848 25.04 17.7 63.9 58 9.4 49
09:35 1019 30.09 848 25.04 17.8 64 59 9.7 49.4
09:40 1018 30.06 848 25.04 17.8 64 60 10 50
09:45 1018 30.06 848 25.04 17.7 63.9 60 10 50
09:50 1018 30.06 848 25.04 17.7 63.9 62 10.5 50.9
09:55 1019 30.09 848 25.04 17.8 64 64 11 51.7
10:00 1019 30.09 848 25.04 17.6 63.7 66 11.4 52.5
10:05 1018 30.06 848 25.04 17.5 63.4 66 11.2 52.1
10:10 1018 30.06 848 25.04 17.7 63.8 66 11.3 52.4
10:15 1018 30.06 848 25.04 17.5 63.5 63 10.5 51
10:20 1018 30.06 848 25.04 17.6 63.8 61 10.2 50.4
10:25 1018 30.06 848 25.04 17.9 64.2 61 10.5 50.8
10:30 1018 30.06 848 25.04 17.9 64.3 63 10.9 51.6
10:35 1018 30.06 848 25.04 17.8 64.1 63 10.8 51.4
10:40 1018 30.06 848 25.04 17.6 63.7 63 10.6 51.1
10:45 1018 30.06 848 25.04 17.7 63.8 64 10.9 51.6
10:50 1018 30.06 847 25.01 17.8 64.1 66 11.4 52.5
10:55 1018 30.06 847 25.01 18 64.4 64 11.2 52.1
11:00 1018 30.06 847 25.01 18 64.4 64 11.1 52
11:05 1018 30.06 847 25.01 18.2 64.8 59 10.1 50.1
11:10 1018 30.06 847 25.01 18.5 65.2 57 9.8 49.6
11:15 1018 30.06 847 25.01 18.8 65.8 57 10.1 50.3
11:20 1018 30.06 847 25.01 19 66.1 56 10 50
11:25 1018 30.06 847 25.01 19.2 66.6 54 9.9 49.8
11:30 1018 30.06 847 25.01 19.7 67.5 54 10.2 50.4
11:35 1018 30.06 847 25.01 20.1 68.1 50 9.4 49
11:40 1018 30.06 847 25.01 20.5 68.8 49 9.6 49.3
11:45 1018 30.06 847 25.01 21.4 70.6 43 8.7 47.6
11:50 1018 30.06 847 25.01 22.1 71.8 38 7.5 45.4
11:55 1017 30.03 847 25.01 22.4 72.4 36 6.9 44.4
12:00 1017 30.03 847 25.01 22.8 73 36 7.2 44.9
12:05 1017 30.03 846 24.98 23.3 73.9 33 6.3 43.4
12:10 1017 30.03 846 24.98 24 75.2 32 6.3 43.4
12:15 1017 30.03 846 24.98 24.1 75.4 31 6.3 43.4
12:20 1017 30.03 846 24.98 24.6 76.2 31 6.3 43.4
12:25 1017 30.03 846 24.98 24.4 75.8 29 5.5 41.8
12:30 1017 30.03 846 24.98 24.8 76.7 28 5.4 41.6
12:35 1017 30.03 846 24.98 25.4 77.6 27 5.3 41.5
12:40 1017 30.03 846 24.98 25.4 77.6 29 6.5 43.7
12:45 1017 30.03 846 24.98 25.5 77.9 29 6.5 43.7
12:50 1017 30.03 846 24.98 25.1 77.1 32 7.5 45.4
12:55 1017 30.03 846 24.98 23.9 75 35 7.9 46.2
13:00 1017 30.03 846 24.98 23.4 74.2 34 7 44.5
13:05 1017 30.03 846 24.98 23.9 75 33 6.7 44.1
13:10 1017 30.03 846 24.98 24.1 75.3 34 7.3 45.1
13:15 1017 30.03 846 24.98 24.8 76.7 31 6.9 44.4
13:20 1017 30.03 846 24.98 24.6 76.2 33 7.6 45.6
13:25 1017 30.03 846 24.98 24.5 76.1 33 7.3 45.1
13:30 1016 30 846 24.98 25.1 77.2 31 7 44.6
13:35 1016 30 846 24.98 25.1 77.1 29 6 42.9
13:40 1016 30 845 24.95 25 77 29 5.8 42.5
13:45 1016 30 845 24.95 24.4 75.9 29 5.5 42
13:50 1016 30 845 24.95 24 75.2 29 4.9 40.9
13:55 1016 30 846 24.98 23.5 74.2 30 5.2 41.4
14:00 1016 30 845 24.95 23.3 73.9 30 4.8 40.7
14:05 1016 30 846 24.98 23.1 73.6 30 4.9 40.8
14:10 1017 30.03 846 24.98 23 73.4 33 6 42.8
14:15 1017 30.03 846 24.98 22.9 73.2 32 5.6 42.1
14:20 1017 30.03 846 24.98 22.8 73.1 33 5.9 42.6
14:25 1017 30.03 846 24.98 22.9 73.2 33 5.8 42.4
14:30 1017 30.03 846 24.98 22.8 73.1 37 7.6 45.6
14:35 1017 30.03 846 24.98 21.6 70.8 46 9.5 49.1
14:40 1016 30 846 24.98 20.8 69.4 47 9.1 48.4
14:45 1016 30 846 24.98 20.8 69.4 47 9.1 48.3
14:50 1016 30 846 24.98 20.8 69.4 47 9.1 48.4
14:55 1016 30 846 24.98 21.1 69.9 44 8.6 47.6
15:00 1016 30 846 24.98 21.1 69.9 49 10.1 50.2
15:05 1016 30 846 24.98 20.5 68.9 53 10.8 51.5
15:10 1016 30 846 24.98 20.6 69.1 51 10.3 50.5
15:15 1016 30 846 24.98 20.8 69.5 54 11.3 52.3
15:20 1016 30 846 24.98 20.9 69.6 55 11.7 53
15:25 1016 30 846 24.98 21.1 70.1 51 10.8 51.4
15:30 1016 30 846 24.98 21 69.8 53 11.2 52.1
15:35 1016 30 845 24.95 21 69.7 50 10.2 50.4
15:40 1016 30 845 24.95 21.1 69.9 49 10.1 50.2
15:45 1016 30 845 24.95 21.2 70.1 48 9.8 49.7
15:50 1016 30 845 24.95 21.3 70.3 48 10.1 50.2
15:55 1016 30 845 24.95 21.3 70.4 49 10.4 50.8
16:00 1016 30 845 24.95 21.2 70.2 51 10.8 51.4
16:05 1016 30 845 24.95 21.4 70.5 49 10.5 50.8
16:10 1016 30 846 24.98 21.5 70.7 48 10.2 50.3
16:15 1017 30.03 846 24.98 20.7 69.2 53 10.9 51.6
16:20 1017 30.03 846 24.98 19 66.2 59 11 51.9
16:25 1017 30.03 846 24.98 18.1 64.6 58 9.9 49.9
16:30 1017 30.03 846 24.98 17.8 64 60 10.1 50.2
16:35 1017 30.03 847 25.01 17.2 63 62 10 50.1
16:40 1018 30.06 847 25.01 16.7 62 64 10 50
16:45 1018 30.06 847 25.01 16.4 61.4 67 10.3 50.5
16:50 1018 30.06 847 25.01 15.9 60.6 69 10.3 50.5
16:55 1018 30.06 847 25.01 15.4 59.8 71 10.3 50.6
17:00 1018 30.06 847 25.01 15.2 59.3 72 10.3 50.5
17:05 1018 30.06 847 25.01 15.3 59.5 71 10.2 50.4
17:10 1018 30.06 847 25.01 15.1 59.2 74 10.5 50.9
17:15 1018 30.06 848 25.04 14.9 58.9 73 10.2 50.4
17:20 1019 30.09 848 25.04 15 59 72 10 50.1
17:25 1019 30.09 848 25.04 14.9 58.8 75 10.6 51.1
17:30 1019 30.09 848 25.04 14.6 58.2 78 10.9 51.6
17:35 1019 30.09 848 25.04 14.4 57.8 78 10.6 51
17:40 1019 30.09 848 25.04 14.4 57.8 78 10.6 51.1
17:45 1019 30.09 848 25.04 14.2 57.5 81 11 51.8
17:50 1019 30.09 848 25.04 14.1 57.3 81 10.9 51.7
17:55 1019 30.09 848 25.04 14.1 57.3 82 11 51.8
18:00 1019 30.09 848 25.04 14 57.2 82 11.1 51.9
18:05 1019 30.09 848 25.04 14 57.1 82 11 51.8
18:10 1019 30.09 848 25.04 13.8 56.9 85 11.4 52.4
18:15 1019 30.09 848 25.04 13.6 56.5 86 11.3 52.4
18:20 1019 30.09 848 25.04 13.6 56.4 86 11.4 52.5
18:25 1019 30.09 848 25.04 13.6 56.4 88 11.6 52.8
18:30 1019 30.09 848 25.04 13.5 56.3 86 11.2 52.2
18:35 1019 30.09 848 25.04 13.5 56.3 85 11 51.8
18:40 1019 30.09 848 25.04 13.6 56.4 86 11.3 52.3
18:45 1019 30.09 848 25.04 13.6 56.4 84 11 51.7
18:50 1019 30.09 848 25.04 13.7 56.7 82 10.7 51.3
18:55 1018 30.06 848 25.04 13.9 56.9 80 10.5 50.9
19:00 1018 30.06 847 25.01 13.8 56.8 80 10.4 50.7
19:05 1018 30.06 848 25.04 13.9 57 77 10 50
19:10 1018 30.06 848 25.04 14.2 57.6 72 9.3 48.7
19:15 1018 30.06 848 25.04 14.3 57.7 76 10 50
19:20 1018 30.06 848 25.04 13.8 56.9 76 9.8 49.6
19:25 1018 30.06 848 25.04 13.8 56.8 77 9.8 49.7
19:30 1018 30.06 848 25.04 13.8 56.8 79 10.3 50.5
19:35 1018 30.06 848 25.04 13.5 56.4 82 10.6 51
19:40 1018 30.06 847 25.01 13.4 56.1 78 9.6 49.3
19:45 1018 30.06 847 25.01 13.5 56.3 78 9.9 49.7
19:50 1018 30.06 847 25.01 13.5 56.2 79 9.9 49.8
19:55 1018 30.06 847 25.01 13.3 55.9 82 10.3 50.5
20:00 1018 30.06 847 25.01 13.2 55.7 82 10.3 50.5
20:05 1018 30.06 847 25.01 13.2 55.7 81 10 50
20:10 1018 30.06 847 25.01 13.2 55.7 80 9.9 49.8
20:15 1018 30.06 847 25.01 13.2 55.8 81 10 50
20:20 1018 30.06 847 25.01 13.3 56 81 10.1 50.3
20:25 1018 30.06 847 25.01 13.3 55.9 82 10.3 50.6
20:30 1018 30.06 848 25.04 13.3 55.9 80 10 50
20:35 1018 30.06 848 25.04 13.3 55.9 80 9.9 49.9
20:40 1019 30.09 848 25.04 13.1 55.6 81 10 49.9
20:45 1019 30.09 848 25.04 13 55.4 81 9.8 49.7
20:50 1019 30.09 848 25.04 12.9 55.2 82 10 49.9
20:55 1019 30.09 848 25.04 12.9 55.2 81 9.6 49.4
21:00 1019 30.09 848 25.04 12.8 55.1 81 9.7 49.5
21:05 1019 30.09 848 25.04 12.7 54.8 82 9.7 49.4
21:10 1019 30.09 848 25.04 12.6 54.6 82 9.6 49.3
21:15 1019 30.09 848 25.04 12.5 54.5 83 9.7 49.4
21:20 1018 30.06 848 25.04 12.4 54.3 83 9.6 49.3
21:25 1018 30.06 848 25.04 12.3 54.1 82 9.3 48.8
21:30 1019 30.09 848 25.04 12.3 54.1 83 9.5 49.1
21:35 1019 30.09 848 25.04 12.1 53.8 83 9.4 49
21:40 1019 30.09 848 25.04 12.1 53.8 84 9.4 48.9
21:45 1019 30.09 848 25.04 12.1 53.8 83 9.4 48.9
21:50 1018 30.06 848 25.04 12 53.6 84 9.5 49
21:55 1018 30.06 848 25.04 11.9 53.4 84 9.3 48.8
22:00 1018 30.06 848 25.04 11.8 53.2 85 9.3 48.7
22:05 1018 30.06 848 25.04 11.6 52.8 84 8.9 48.1
22:10 1018 30.06 848 25.04 12 53.5 80 8.7 47.6
22:15 1018 30.06 848 25.04 12.2 53.9 80 8.9 48
22:20 1018 30.06 848 25.04 12.2 53.9 81 9 48.2
22:25 1018 30.06 848 25.04 12.1 53.8 78 8.4 47.2
22:30 1018 30.06 848 25.04 12.3 54.1 79 8.8 47.8
22:35 1018 30.06 848 25.04 12 53.6 80 8.6 47.5
22:40 1018 30.06 848 25.04 11.9 53.3 81 8.7 47.7
22:45 1018 30.06 848 25.04 11.6 52.9 82 8.7 47.7
22:50 1018 30.06 848 25.04 11.4 52.5 83 8.5 47.3
22:55 1018 30.06 848 25.04 11.5 52.7 82 8.6 47.4
23:00 1018 30.06 848 25.04 11.4 52.5 83 8.6 47.6
23:05 1018 30.06 848 25.04 11.1 52 85 8.7 47.7
23:10 1018 30.06 848 25.04 10.7 51.3 86 8.5 47.3
23:15 1018 30.06 848 25.04 10.6 51 86 8.4 47.1
23:20 1018 30.06 848 25.04 10.5 50.9 86 8.3 46.9
23:25 1018 30.06 848 25.04 10.4 50.8 86 8.1 46.7
23:30 1019 30.09 848 25.04 10.3 50.5 86 8 46.5
23:35 1018 30.06 848 25.04 10.3 50.6 85 7.9 46.2
23:40 1018 30.06 848 25.04 10.4 50.8 85 8.1 46.6
23:45 1018 30.06 848 25.04 10.4 50.8 85 8 46.4
23:50 1019 30.09 848 25.04 10.4 50.8 83 7.7 45.9
23:55 1019 30.09 848 25.04 10.4 50.8 83 7.7 45.8
24:00 1019 30.09 848 25.04 9.9 49.9 85 7.6 45.7